sensor_id;sensor_type;location;lat;lon;timestamp;P1;durP1;ratioP1;P2;durP2;ratioP2
286;SDS011;127;48.770;9.212;2024-03-22T00:02:07;57.13;;;24.37;;
286;SDS011;127;48.770;9.212;2024-03-22T00:04:34;63.20;;;24.40;;
286;SDS011;127;48.770;9.212;2024-03-22T00:07:00;53.50;;;23.77;;
286;SDS011;127;48.770;9.212;2024-03-22T00:09:26;45.60;;;23.57;;
286;SDS011;127;48.770;9.212;2024-03-22T00:11:52;59.27;;;23.77;;
286;SDS011;127;48.770;9.212;2024-03-22T00:14:19;58.63;;;24.47;;
286;SDS011;127;48.770;9.212;2024-03-22T00:16:45;47.20;;;22.50;;
286;SDS011;127;48.770;9.212;2024-03-22T00:19:14;49.93;;;23.87;;
286;SDS011;127;48.770;9.212;2024-03-22T00:21:40;47.33;;;24.63;;
286;SDS011;127;48.770;9.212;2024-03-22T00:24:07;45.90;;;22.80;;
286;SDS011;127;48.770;9.212;2024-03-22T00:26:33;52.43;;;22.80;;
286;SDS011;127;48.770;9.212;2024-03-22T00:28:59;48.33;;;22.53;;
286;SDS011;127;48.770;9.212;2024-03-22T00:31:26;61.03;;;23.70;;
286;SDS011;127;48.770;9.212;2024-03-22T00:33:52;55.57;;;22.50;;
286;SDS011;127;48.770;9.212;2024-03-22T00:36:21;60.03;;;22.70;;
286;SDS011;127;48.770;9.212;2024-03-22T00:38:47;49.30;;;20.33;;
286;SDS011;127;48.770;9.212;2024-03-22T00:41:13;42.13;;;20.73;;
286;SDS011;127;48.770;9.212;2024-03-22T00:43:40;50.63;;;21.13;;
286;SDS011;127;48.770;9.212;2024-03-22T00:46:06;40.80;;;20.83;;
286;SDS011;127;48.770;9.212;2024-03-22T00:48:33;57.60;;;21.00;;
286;SDS011;127;48.770;9.212;2024-03-22T00:51:00;51.57;;;23.10;;
286;SDS011;127;48.770;9.212;2024-03-22T00:53:29;46.53;;;21.80;;
286;SDS011;127;48.770;9.212;2024-03-22T00:55:55;56.50;;;23.23;;
286;SDS011;127;48.770;9.212;2024-03-22T00:58:22;51.57;;;21.20;;
286;SDS011;127;48.770;9.212;2024-03-22T01:00:48;45.00;;;19.93;;
286;SDS011;127;48.770;9.212;2024-03-22T01:03:14;43.20;;;20.60;;
286;SDS011;127;48.770;9.212;2024-03-22T01:05:41;40.93;;;19.43;;
286;SDS011;127;48.770;9.212;2024-03-22T01:08:07;42.90;;;18.10;;
286;SDS011;127;48.770;9.212;2024-03-22T01:10:36;44.40;;;19.90;;
286;SDS011;127;48.770;9.212;2024-03-22T01:13:02;37.47;;;18.27;;
286;SDS011;127;48.770;9.212;2024-03-22T01:15:28;31.13;;;15.97;;
286;SDS011;127;48.770;9.212;2024-03-22T01:17:55;34.60;;;18.50;;
286;SDS011;127;48.770;9.212;2024-03-22T01:20:21;32.70;;;16.37;;
286;SDS011;127;48.770;9.212;2024-03-22T01:22:47;37.80;;;17.40;;
286;SDS011;127;48.770;9.212;2024-03-22T01:25:14;42.40;;;18.93;;
286;SDS011;127;48.770;9.212;2024-03-22T01:27:43;46.10;;;20.20;;
286;SDS011;127;48.770;9.212;2024-03-22T01:30:09;39.97;;;17.03;;
286;SDS011;127;48.770;9.212;2024-03-22T01:32:36;37.03;;;17.93;;
286;SDS011;127;48.770;9.212;2024-03-22T01:35:03;31.93;;;15.87;;
286;SDS011;127;48.770;9.212;2024-03-22T01:37:29;28.10;;;13.70;;
286;SDS011;127;48.770;9.212;2024-03-22T01:39:55;32.40;;;14.70;;
286;SDS011;127;48.770;9.212;2024-03-22T01:42:21;32.50;;;15.73;;
286;SDS011;127;48.770;9.212;2024-03-22T01:44:51;42.63;;;19.80;;
286;SDS011;127;48.770;9.212;2024-03-22T01:47:17;37.07;;;16.23;;
286;SDS011;127;48.770;9.212;2024-03-22T01:49:43;38.30;;;17.53;;
286;SDS011;127;48.770;9.212;2024-03-22T01:52:10;37.07;;;17.07;;
286;SDS011;127;48.770;9.212;2024-03-22T01:54:36;37.00;;;17.87;;
286;SDS011;127;48.770;9.212;2024-03-22T01:57:02;40.80;;;16.50;;
286;SDS011;127;48.770;9.212;2024-03-22T01:59:29;45.10;;;18.37;;
286;SDS011;127;48.770;9.212;2024-03-22T02:01:58;57.10;;;22.17;;
286;SDS011;127;48.770;9.212;2024-03-22T02:04:25;55.97;;;23.90;;
286;SDS011;127;48.770;9.212;2024-03-22T02:06:51;48.93;;;22.57;;
286;SDS011;127;48.770;9.212;2024-03-22T02:09:17;49.00;;;22.70;;
286;SDS011;127;48.770;9.212;2024-03-22T02:11:44;50.20;;;21.47;;
286;SDS011;127;48.770;9.212;2024-03-22T02:14:11;46.07;;;20.00;;
286;SDS011;127;48.770;9.212;2024-03-22T02:16:39;51.13;;;20.93;;
286;SDS011;127;48.770;9.212;2024-03-22T02:19:08;52.90;;;23.40;;
286;SDS011;127;48.770;9.212;2024-03-22T02:21:34;64.73;;;24.57;;
286;SDS011;127;48.770;9.212;2024-03-22T02:24:04;52.13;;;22.70;;
286;SDS011;127;48.770;9.212;2024-03-22T02:26:30;60.47;;;23.10;;
286;SDS011;127;48.770;9.212;2024-03-22T02:28:56;57.27;;;23.87;;
286;SDS011;127;48.770;9.212;2024-03-22T02:31:23;53.70;;;24.67;;
286;SDS011;127;48.770;9.212;2024-03-22T02:33:49;56.53;;;24.67;;
286;SDS011;127;48.770;9.212;2024-03-22T02:36:15;62.80;;;23.50;;
286;SDS011;127;48.770;9.212;2024-03-22T02:38:42;59.03;;;23.37;;
286;SDS011;127;48.770;9.212;2024-03-22T02:41:11;51.97;;;21.67;;
286;SDS011;127;48.770;9.212;2024-03-22T02:43:37;51.80;;;22.40;;
286;SDS011;127;48.770;9.212;2024-03-22T02:46:03;53.20;;;23.73;;
286;SDS011;127;48.770;9.212;2024-03-22T02:48:30;66.17;;;26.63;;
286;SDS011;127;48.770;9.212;2024-03-22T02:50:56;62.43;;;24.07;;
286;SDS011;127;48.770;9.212;2024-03-22T02:53:22;58.20;;;25.77;;
286;SDS011;127;48.770;9.212;2024-03-22T02:55:49;52.70;;;23.43;;
286;SDS011;127;48.770;9.212;2024-03-22T02:58:20;57.57;;;25.10;;
286;SDS011;127;48.770;9.212;2024-03-22T03:00:47;56.47;;;23.60;;
286;SDS011;127;48.770;9.212;2024-03-22T03:03:13;50.23;;;25.40;;
286;SDS011;127;48.770;9.212;2024-03-22T03:05:40;50.73;;;22.50;;
286;SDS011;127;48.770;9.212;2024-03-22T03:08:06;48.27;;;22.60;;
286;SDS011;127;48.770;9.212;2024-03-22T03:10:32;50.50;;;24.67;;
286;SDS011;127;48.770;9.212;2024-03-22T03:12:59;46.77;;;22.40;;
286;SDS011;127;48.770;9.212;2024-03-22T03:15:28;59.03;;;20.93;;
286;SDS011;127;48.770;9.212;2024-03-22T03:17:55;53.83;;;21.20;;
286;SDS011;127;48.770;9.212;2024-03-22T03:20:21;45.50;;;21.03;;
286;SDS011;127;48.770;9.212;2024-03-22T03:22:47;42.10;;;17.87;;
286;SDS011;127;48.770;9.212;2024-03-22T03:25:13;44.87;;;20.57;;
286;SDS011;127;48.770;9.212;2024-03-22T03:27:40;36.77;;;16.80;;
286;SDS011;127;48.770;9.212;2024-03-22T03:30:07;42.30;;;17.80;;
286;SDS011;127;48.770;9.212;2024-03-22T03:32:36;46.63;;;18.23;;
286;SDS011;127;48.770;9.212;2024-03-22T03:35:02;36.40;;;16.27;;
286;SDS011;127;48.770;9.212;2024-03-22T03:37:29;28.70;;;14.63;;
286;SDS011;127;48.770;9.212;2024-03-22T03:39:55;27.37;;;14.53;;
286;SDS011;127;48.770;9.212;2024-03-22T03:42:22;24.90;;;12.70;;
286;SDS011;127;48.770;9.212;2024-03-22T03:44:48;23.40;;;12.23;;
286;SDS011;127;48.770;9.212;2024-03-22T03:47:14;20.23;;;11.53;;
286;SDS011;127;48.770;9.212;2024-03-22T03:49:44;18.57;;;11.00;;
286;SDS011;127;48.770;9.212;2024-03-22T03:52:10;19.53;;;10.90;;
286;SDS011;127;48.770;9.212;2024-03-22T03:54:37;15.43;;;10.20;;
286;SDS011;127;48.770;9.212;2024-03-22T03:57:03;19.43;;;10.17;;
286;SDS011;127;48.770;9.212;2024-03-22T03:59:30;15.60;;;9.20;;
286;SDS011;127;48.770;9.212;2024-03-22T04:01:56;16.90;;;9.10;;
286;SDS011;127;48.770;9.212;2024-03-22T04:04:22;15.20;;;9.33;;
286;SDS011;127;48.770;9.212;2024-03-22T04:06:51;16.27;;;9.07;;
286;SDS011;127;48.770;9.212;2024-03-22T04:09:17;15.30;;;8.23;;
286;SDS011;127;48.770;9.212;2024-03-22T04:11:44;13.10;;;7.63;;
286;SDS011;127;48.770;9.212;2024-03-22T04:14:10;15.07;;;8.57;;
286;SDS011;127;48.770;9.212;2024-03-22T04:16:36;18.13;;;9.57;;
286;SDS011;127;48.770;9.212;2024-03-22T04:19:03;15.50;;;7.70;;
286;SDS011;127;48.770;9.212;2024-03-22T04:21:29;12.67;;;8.50;;
286;SDS011;127;48.770;9.212;2024-03-22T04:23:58;15.07;;;7.53;;
286;SDS011;127;48.770;9.212;2024-03-22T04:26:24;13.03;;;8.30;;
286;SDS011;127;48.770;9.212;2024-03-22T04:28:50;17.93;;;8.60;;
286;SDS011;127;48.770;9.212;2024-03-22T04:31:17;17.07;;;9.60;;
286;SDS011;127;48.770;9.212;2024-03-22T04:33:43;16.43;;;9.10;;
286;SDS011;127;48.770;9.212;2024-03-22T04:36:09;25.90;;;9.20;;
286;SDS011;127;48.770;9.212;2024-03-22T04:38:36;15.13;;;8.40;;
286;SDS011;127;48.770;9.212;2024-03-22T04:41:05;12.47;;;7.50;;
286;SDS011;127;48.770;9.212;2024-03-22T04:43:31;14.63;;;8.40;;
286;SDS011;127;48.770;9.212;2024-03-22T04:45:57;12.23;;;8.23;;
286;SDS011;127;48.770;9.212;2024-03-22T04:48:24;13.87;;;8.33;;
286;SDS011;127;48.770;9.212;2024-03-22T04:50:50;19.20;;;9.40;;
286;SDS011;127;48.770;9.212;2024-03-22T04:53:17;14.23;;;8.00;;
286;SDS011;127;48.770;9.212;2024-03-22T04:55:43;24.33;;;8.73;;
286;SDS011;127;48.770;9.212;2024-03-22T04:58:14;13.77;;;7.53;;
286;SDS011;127;48.770;9.212;2024-03-22T05:00:43;14.70;;;8.33;;
286;SDS011;127;48.770;9.212;2024-03-22T05:03:10;18.90;;;9.07;;
286;SDS011;127;48.770;9.212;2024-03-22T05:05:37;16.00;;;8.77;;
286;SDS011;127;48.770;9.212;2024-03-22T05:08:04;19.03;;;9.17;;
286;SDS011;127;48.770;9.212;2024-03-22T05:10:30;16.80;;;9.07;;
286;SDS011;127;48.770;9.212;2024-03-22T05:12:57;21.50;;;9.00;;
286;SDS011;127;48.770;9.212;2024-03-22T05:15:26;19.93;;;10.27;;
286;SDS011;127;48.770;9.212;2024-03-22T05:17:52;13.50;;;7.60;;
286;SDS011;127;48.770;9.212;2024-03-22T05:20:19;17.23;;;9.80;;
286;SDS011;127;48.770;9.212;2024-03-22T05:22:46;13.83;;;8.20;;
286;SDS011;127;48.770;9.212;2024-03-22T05:25:12;13.93;;;7.83;;
286;SDS011;127;48.770;9.212;2024-03-22T05:27:39;14.53;;;7.23;;
286;SDS011;127;48.770;9.212;2024-03-22T05:30:05;18.73;;;8.23;;
286;SDS011;127;48.770;9.212;2024-03-22T05:32:35;17.10;;;9.60;;
286;SDS011;127;48.770;9.212;2024-03-22T05:35:01;14.40;;;7.40;;
286;SDS011;127;48.770;9.212;2024-03-22T05:37:27;15.53;;;8.23;;
286;SDS011;127;48.770;9.212;2024-03-22T05:39:53;20.17;;;8.43;;
286;SDS011;127;48.770;9.212;2024-03-22T05:42:20;22.17;;;9.30;;
286;SDS011;127;48.770;9.212;2024-03-22T05:44:47;14.93;;;8.93;;
286;SDS011;127;48.770;9.212;2024-03-22T05:47:13;13.77;;;9.10;;
286;SDS011;127;48.770;9.212;2024-03-22T05:49:42;13.37;;;8.60;;
286;SDS011;127;48.770;9.212;2024-03-22T05:52:09;16.07;;;9.70;;
286;SDS011;127;48.770;9.212;2024-03-22T05:54:35;23.33;;;11.07;;
286;SDS011;127;48.770;9.212;2024-03-22T05:57:02;22.97;;;10.17;;
286;SDS011;127;48.770;9.212;2024-03-22T05:59:28;19.30;;;10.27;;
286;SDS011;127;48.770;9.212;2024-03-22T06:01:54;16.20;;;9.60;;
286;SDS011;127;48.770;9.212;2024-03-22T06:04:20;17.33;;;10.17;;
286;SDS011;127;48.770;9.212;2024-03-22T06:06:49;15.83;;;9.80;;
286;SDS011;127;48.770;9.212;2024-03-22T06:09:16;21.87;;;10.80;;
286;SDS011;127;48.770;9.212;2024-03-22T06:11:43;16.87;;;9.60;;
286;SDS011;127;48.770;9.212;2024-03-22T06:14:09;15.67;;;9.17;;
286;SDS011;127;48.770;9.212;2024-03-22T06:16:35;22.90;;;11.63;;
286;SDS011;127;48.770;9.212;2024-03-22T06:19:02;17.70;;;9.97;;
286;SDS011;127;48.770;9.212;2024-03-22T06:21:28;23.43;;;11.23;;
286;SDS011;127;48.770;9.212;2024-03-22T06:23:57;17.90;;;9.93;;
286;SDS011;127;48.770;9.212;2024-03-22T06:26:23;17.73;;;9.50;;
286;SDS011;127;48.770;9.212;2024-03-22T06:28:50;17.90;;;8.60;;
286;SDS011;127;48.770;9.212;2024-03-22T06:31:16;17.93;;;7.50;;
286;SDS011;127;48.770;9.212;2024-03-22T06:33:43;18.03;;;10.10;;
286;SDS011;127;48.770;9.212;2024-03-22T06:36:09;24.73;;;10.40;;
286;SDS011;127;48.770;9.212;2024-03-22T06:38:35;18.47;;;10.07;;
286;SDS011;127;48.770;9.212;2024-03-22T06:41:04;26.33;;;9.70;;
286;SDS011;127;48.770;9.212;2024-03-22T06:43:30;22.00;;;11.73;;
286;SDS011;127;48.770;9.212;2024-03-22T06:45:57;20.40;;;10.70;;
286;SDS011;127;48.770;9.212;2024-03-22T06:48:23;18.10;;;10.00;;
286;SDS011;127;48.770;9.212;2024-03-22T06:50:49;20.33;;;10.40;;
286;SDS011;127;48.770;9.212;2024-03-22T06:53:15;17.83;;;10.63;;
286;SDS011;127;48.770;9.212;2024-03-22T06:55:45;28.40;;;11.43;;
286;SDS011;127;48.770;9.212;2024-03-22T06:58:14;29.43;;;10.93;;
286;SDS011;127;48.770;9.212;2024-03-22T07:00:40;16.33;;;10.60;;
286;SDS011;127;48.770;9.212;2024-03-22T07:03:06;17.50;;;10.10;;
286;SDS011;127;48.770;9.212;2024-03-22T07:05:32;17.60;;;9.83;;
286;SDS011;127;48.770;9.212;2024-03-22T07:08:02;20.93;;;9.63;;
286;SDS011;127;48.770;9.212;2024-03-22T07:10:28;15.50;;;9.23;;
286;SDS011;127;48.770;9.212;2024-03-22T07:12:54;25.80;;;11.17;;
286;SDS011;127;48.770;9.212;2024-03-22T07:15:24;19.60;;;10.93;;
286;SDS011;127;48.770;9.212;2024-03-22T07:17:50;19.27;;;10.10;;
286;SDS011;127;48.770;9.212;2024-03-22T07:20:16;18.90;;;10.57;;
286;SDS011;127;48.770;9.212;2024-03-22T07:22:43;23.47;;;11.83;;
286;SDS011;127;48.770;9.212;2024-03-22T07:25:09;23.20;;;10.93;;
286;SDS011;127;48.770;9.212;2024-03-22T07:27:35;26.50;;;12.83;;
286;SDS011;127;48.770;9.212;2024-03-22T07:30:02;21.70;;;11.20;;
286;SDS011;127;48.770;9.212;2024-03-22T07:32:31;24.03;;;12.40;;
286;SDS011;127;48.770;9.212;2024-03-22T07:34:57;23.90;;;11.60;;
286;SDS011;127;48.770;9.212;2024-03-22T07:37:24;26.83;;;12.23;;
286;SDS011;127;48.770;9.212;2024-03-22T07:39:50;20.57;;;10.93;;
286;SDS011;127;48.770;9.212;2024-03-22T07:42:16;22.90;;;11.43;;
286;SDS011;127;48.770;9.212;2024-03-22T07:44:43;16.90;;;10.43;;
286;SDS011;127;48.770;9.212;2024-03-22T07:47:09;16.00;;;9.50;;
286;SDS011;127;48.770;9.212;2024-03-22T07:49:38;21.50;;;10.43;;
286;SDS011;127;48.770;9.212;2024-03-22T07:52:04;14.80;;;8.60;;
286;SDS011;127;48.770;9.212;2024-03-22T07:54:30;16.50;;;8.70;;
286;SDS011;127;48.770;9.212;2024-03-22T07:56:57;27.50;;;9.90;;
286;SDS011;127;48.770;9.212;2024-03-22T07:59:23;20.13;;;10.63;;
286;SDS011;127;48.770;9.212;2024-03-22T08:01:50;15.10;;;9.50;;
286;SDS011;127;48.770;9.212;2024-03-22T08:04:16;18.03;;;9.90;;
286;SDS011;127;48.770;9.212;2024-03-22T08:06:45;20.40;;;10.20;;
286;SDS011;127;48.770;9.212;2024-03-22T08:09:11;19.83;;;9.50;;
286;SDS011;127;48.770;9.212;2024-03-22T08:11:38;24.00;;;9.97;;
286;SDS011;127;48.770;9.212;2024-03-22T08:14:04;20.70;;;9.67;;
286;SDS011;127;48.770;9.212;2024-03-22T08:16:30;17.83;;;10.43;;
286;SDS011;127;48.770;9.212;2024-03-22T08:18:57;16.13;;;9.97;;
286;SDS011;127;48.770;9.212;2024-03-22T08:21:23;20.40;;;9.30;;
286;SDS011;127;48.770;9.212;2024-03-22T08:23:52;13.10;;;8.30;;
286;SDS011;127;48.770;9.212;2024-03-22T08:26:18;16.53;;;9.97;;
286;SDS011;127;48.770;9.212;2024-03-22T08:28:45;14.23;;;8.37;;
286;SDS011;127;48.770;9.212;2024-03-22T08:31:11;14.53;;;7.70;;
286;SDS011;127;48.770;9.212;2024-03-22T08:33:38;14.70;;;7.37;;
286;SDS011;127;48.770;9.212;2024-03-22T08:36:04;11.10;;;7.47;;
286;SDS011;127;48.770;9.212;2024-03-22T08:38:30;14.50;;;7.90;;
286;SDS011;127;48.770;9.212;2024-03-22T08:40:59;15.47;;;7.00;;
286;SDS011;127;48.770;9.212;2024-03-22T08:43:26;18.30;;;7.43;;
286;SDS011;127;48.770;9.212;2024-03-22T08:45:52;19.00;;;6.90;;
286;SDS011;127;48.770;9.212;2024-03-22T08:48:18;11.23;;;5.77;;
286;SDS011;127;48.770;9.212;2024-03-22T08:50:45;19.50;;;6.43;;
286;SDS011;127;48.770;9.212;2024-03-22T08:53:11;10.30;;;6.50;;
286;SDS011;127;48.770;9.212;2024-03-22T08:55:37;12.77;;;8.00;;
286;SDS011;127;48.770;9.212;2024-03-22T08:58:06;14.80;;;7.17;;
286;SDS011;127;48.770;9.212;2024-03-22T09:00:32;15.67;;;7.13;;
286;SDS011;127;48.770;9.212;2024-03-22T09:02:58;13.40;;;7.03;;
286;SDS011;127;48.770;9.212;2024-03-22T09:05:25;16.47;;;6.80;;
286;SDS011;127;48.770;9.212;2024-03-22T09:07:51;12.33;;;6.13;;
286;SDS011;127;48.770;9.212;2024-03-22T09:10:17;14.97;;;6.13;;
286;SDS011;127;48.770;9.212;2024-03-22T09:12:44;15.20;;;8.70;;
286;SDS011;127;48.770;9.212;2024-03-22T09:15:12;25.37;;;9.63;;
286;SDS011;127;48.770;9.212;2024-03-22T09:17:39;16.00;;;10.40;;
286;SDS011;127;48.770;9.212;2024-03-22T09:20:06;13.23;;;8.73;;
286;SDS011;127;48.770;9.212;2024-03-22T09:22:32;13.37;;;8.43;;
286;SDS011;127;48.770;9.212;2024-03-22T09:24:59;15.50;;;8.07;;
286;SDS011;127;48.770;9.212;2024-03-22T09:27:25;17.53;;;9.27;;
286;SDS011;127;48.770;9.212;2024-03-22T09:29:51;18.33;;;9.67;;
286;SDS011;127;48.770;9.212;2024-03-22T09:32:20;15.43;;;7.60;;
286;SDS011;127;48.770;9.212;2024-03-22T09:34:48;16.93;;;7.20;;
286;SDS011;127;48.770;9.212;2024-03-22T09:37:15;17.83;;;7.53;;
286;SDS011;127;48.770;9.212;2024-03-22T09:39:41;14.67;;;7.60;;
286;SDS011;127;48.770;9.212;2024-03-22T09:42:08;17.67;;;7.70;;
286;SDS011;127;48.770;9.212;2024-03-22T09:44:34;14.10;;;8.20;;
286;SDS011;127;48.770;9.212;2024-03-22T09:47:01;15.93;;;8.97;;
286;SDS011;127;48.770;9.212;2024-03-22T09:49:30;16.80;;;8.50;;
286;SDS011;127;48.770;9.212;2024-03-22T09:51:56;16.73;;;7.63;;
286;SDS011;127;48.770;9.212;2024-03-22T09:54:23;10.30;;;7.10;;
286;SDS011;127;48.770;9.212;2024-03-22T09:56:49;14.23;;;8.33;;
286;SDS011;127;48.770;9.212;2024-03-22T09:59:16;13.00;;;7.07;;
286;SDS011;127;48.770;9.212;2024-03-22T10:01:43;12.43;;;6.87;;
286;SDS011;127;48.770;9.212;2024-03-22T10:04:09;9.10;;;6.83;;
286;SDS011;127;48.770;9.212;2024-03-22T10:06:38;10.53;;;6.77;;
286;SDS011;127;48.770;9.212;2024-03-22T10:09:04;11.33;;;5.67;;
286;SDS011;127;48.770;9.212;2024-03-22T10:11:31;13.73;;;5.93;;
286;SDS011;127;48.770;9.212;2024-03-22T10:13:57;10.00;;;5.20;;
286;SDS011;127;48.770;9.212;2024-03-22T10:16:23;11.30;;;6.00;;
286;SDS011;127;48.770;9.212;2024-03-22T10:18:50;11.43;;;5.33;;
286;SDS011;127;48.770;9.212;2024-03-22T10:21:17;10.30;;;6.20;;
286;SDS011;127;48.770;9.212;2024-03-22T10:23:46;14.07;;;6.23;;
286;SDS011;127;48.770;9.212;2024-03-22T10:26:12;8.20;;;4.90;;
286;SDS011;127;48.770;9.212;2024-03-22T10:28:43;8.73;;;4.50;;
286;SDS011;127;48.770;9.212;2024-03-22T10:31:10;9.43;;;5.20;;
286;SDS011;127;48.770;9.212;2024-03-22T10:33:37;10.33;;;5.13;;
286;SDS011;127;48.770;9.212;2024-03-22T10:36:04;8.47;;;4.57;;
286;SDS011;127;48.770;9.212;2024-03-22T10:38:30;11.10;;;4.80;;
286;SDS011;127;48.770;9.212;2024-03-22T10:41:01;8.20;;;4.83;;
286;SDS011;127;48.770;9.212;2024-03-22T10:43:27;8.50;;;4.37;;
286;SDS011;127;48.770;9.212;2024-03-22T10:45:54;9.23;;;4.67;;
286;SDS011;127;48.770;9.212;2024-03-22T10:48:22;7.83;;;4.60;;
286;SDS011;127;48.770;9.212;2024-03-22T10:50:49;8.73;;;4.50;;
286;SDS011;127;48.770;9.212;2024-03-22T10:53:18;12.97;;;4.60;;
286;SDS011;127;48.770;9.212;2024-03-22T10:55:45;9.47;;;4.37;;
286;SDS011;127;48.770;9.212;2024-03-22T10:58:17;7.07;;;3.97;;
286;SDS011;127;48.770;9.212;2024-03-22T11:00:43;6.37;;;4.40;;
286;SDS011;127;48.770;9.212;2024-03-22T11:03:10;9.73;;;4.53;;
286;SDS011;127;48.770;9.212;2024-03-22T11:05:44;6.20;;;4.40;;
286;SDS011;127;48.770;9.212;2024-03-22T11:08:10;9.23;;;4.70;;
286;SDS011;127;48.770;9.212;2024-03-22T11:10:37;8.20;;;4.50;;
286;SDS011;127;48.770;9.212;2024-03-22T11:13:03;11.07;;;4.10;;
286;SDS011;127;48.770;9.212;2024-03-22T11:15:33;10.73;;;4.90;;
286;SDS011;127;48.770;9.212;2024-03-22T11:17:59;8.73;;;5.20;;
286;SDS011;127;48.770;9.212;2024-03-22T11:20:25;13.57;;;4.97;;
286;SDS011;127;48.770;9.212;2024-03-22T11:22:52;10.17;;;5.07;;
286;SDS011;127;48.770;9.212;2024-03-22T11:25:18;9.40;;;4.67;;
286;SDS011;127;48.770;9.212;2024-03-22T11:27:44;11.27;;;5.30;;
286;SDS011;127;48.770;9.212;2024-03-22T11:30:11;9.07;;;5.40;;
286;SDS011;127;48.770;9.212;2024-03-22T11:32:40;10.00;;;4.90;;
286;SDS011;127;48.770;9.212;2024-03-22T11:35:07;8.67;;;5.27;;
286;SDS011;127;48.770;9.212;2024-03-22T11:37:34;14.43;;;5.70;;
286;SDS011;127;48.770;9.212;2024-03-22T11:40:03;10.10;;;5.10;;
286;SDS011;127;48.770;9.212;2024-03-22T11:42:30;14.60;;;4.40;;
286;SDS011;127;48.770;9.212;2024-03-22T11:44:56;12.03;;;5.50;;
286;SDS011;127;48.770;9.212;2024-03-22T11:47:23;9.90;;;4.40;;
286;SDS011;127;48.770;9.212;2024-03-22T11:49:52;10.57;;;5.27;;
286;SDS011;127;48.770;9.212;2024-03-22T11:52:18;7.77;;;4.90;;
286;SDS011;127;48.770;9.212;2024-03-22T11:54:49;7.97;;;4.70;;
286;SDS011;127;48.770;9.212;2024-03-22T11:57:17;8.70;;;4.80;;
286;SDS011;127;48.770;9.212;2024-03-22T11:59:43;10.67;;;5.83;;
286;SDS011;127;48.770;9.212;2024-03-22T12:02:10;12.20;;;6.40;;
286;SDS011;127;48.770;9.212;2024-03-22T12:04:40;9.10;;;5.20;;
286;SDS011;127;48.770;9.212;2024-03-22T12:07:11;13.43;;;5.20;;
286;SDS011;127;48.770;9.212;2024-03-22T12:09:38;7.97;;;5.10;;
286;SDS011;127;48.770;9.212;2024-03-22T12:12:05;7.50;;;5.27;;
286;SDS011;127;48.770;9.212;2024-03-22T12:14:32;5.87;;;4.00;;
286;SDS011;127;48.770;9.212;2024-03-22T12:16:59;12.30;;;5.53;;
286;SDS011;127;48.770;9.212;2024-03-22T12:19:25;7.67;;;4.97;;
286;SDS011;127;48.770;9.212;2024-03-22T12:21:51;8.77;;;5.20;;
286;SDS011;127;48.770;9.212;2024-03-22T12:24:20;11.83;;;4.50;;
286;SDS011;127;48.770;9.212;2024-03-22T12:26:46;8.97;;;5.17;;
286;SDS011;127;48.770;9.212;2024-03-22T12:29:14;13.10;;;5.60;;
286;SDS011;127;48.770;9.212;2024-03-22T12:31:41;12.23;;;5.13;;
286;SDS011;127;48.770;9.212;2024-03-22T12:34:07;9.00;;;5.40;;
286;SDS011;127;48.770;9.212;2024-03-22T12:36:34;8.83;;;5.27;;
286;SDS011;127;48.770;9.212;2024-03-22T12:39:00;7.77;;;3.93;;
286;SDS011;127;48.770;9.212;2024-03-22T12:41:29;10.53;;;5.67;;
286;SDS011;127;48.770;9.212;2024-03-22T12:43:56;11.37;;;4.90;;
286;SDS011;127;48.770;9.212;2024-03-22T12:46:22;10.13;;;5.13;;
286;SDS011;127;48.770;9.212;2024-03-22T12:48:49;15.43;;;4.33;;
286;SDS011;127;48.770;9.212;2024-03-22T12:51:15;12.63;;;4.60;;
286;SDS011;127;48.770;9.212;2024-03-22T12:53:42;8.70;;;5.20;;
286;SDS011;127;48.770;9.212;2024-03-22T12:56:08;5.00;;;3.50;;
286;SDS011;127;48.770;9.212;2024-03-22T12:58:37;6.10;;;3.23;;
286;SDS011;127;48.770;9.212;2024-03-22T13:01:03;4.23;;;2.43;;
286;SDS011;127;48.770;9.212;2024-03-22T13:03:31;6.30;;;2.83;;
286;SDS011;127;48.770;9.212;2024-03-22T13:05:57;4.57;;;2.43;;
286;SDS011;127;48.770;9.212;2024-03-22T13:08:24;4.20;;;2.53;;
286;SDS011;127;48.770;9.212;2024-03-22T13:10:50;4.87;;;2.53;;
286;SDS011;127;48.770;9.212;2024-03-22T13:13:16;5.50;;;2.57;;
286;SDS011;127;48.770;9.212;2024-03-22T13:15:45;4.50;;;2.70;;
286;SDS011;127;48.770;9.212;2024-03-22T13:18:12;7.50;;;2.70;;
286;SDS011;127;48.770;9.212;2024-03-22T13:20:38;4.57;;;2.40;;
286;SDS011;127;48.770;9.212;2024-03-22T13:23:05;6.10;;;3.23;;
286;SDS011;127;48.770;9.212;2024-03-22T13:25:31;6.20;;;2.90;;
286;SDS011;127;48.770;9.212;2024-03-22T13:27:57;3.37;;;2.93;;
286;SDS011;127;48.770;9.212;2024-03-22T13:30:24;7.47;;;3.57;;
286;SDS011;127;48.770;9.212;2024-03-22T13:32:53;5.03;;;2.90;;
286;SDS011;127;48.770;9.212;2024-03-22T13:35:19;10.57;;;3.83;;
286;SDS011;127;48.770;9.212;2024-03-22T13:37:45;7.90;;;3.33;;
286;SDS011;127;48.770;9.212;2024-03-22T13:40:11;5.63;;;3.53;;
286;SDS011;127;48.770;9.212;2024-03-22T13:42:38;5.00;;;3.23;;
286;SDS011;127;48.770;9.212;2024-03-22T13:45:04;6.07;;;3.30;;
286;SDS011;127;48.770;9.212;2024-03-22T13:47:31;5.70;;;3.60;;
286;SDS011;127;48.770;9.212;2024-03-22T13:50:00;4.57;;;3.37;;
286;SDS011;127;48.770;9.212;2024-03-22T13:52:26;9.40;;;4.03;;
286;SDS011;127;48.770;9.212;2024-03-22T13:54:52;5.17;;;3.70;;
286;SDS011;127;48.770;9.212;2024-03-22T13:57:18;7.03;;;3.73;;
286;SDS011;127;48.770;9.212;2024-03-22T13:59:45;8.33;;;4.70;;
286;SDS011;127;48.770;9.212;2024-03-22T14:02:11;9.57;;;4.10;;
286;SDS011;127;48.770;9.212;2024-03-22T14:04:37;8.77;;;4.17;;
286;SDS011;127;48.770;9.212;2024-03-22T14:07:06;6.20;;;3.90;;
286;SDS011;127;48.770;9.212;2024-03-22T14:09:32;5.77;;;3.43;;
286;SDS011;127;48.770;9.212;2024-03-22T14:11:59;5.50;;;3.87;;
286;SDS011;127;48.770;9.212;2024-03-22T14:14:25;7.10;;;4.23;;
286;SDS011;127;48.770;9.212;2024-03-22T14:16:52;9.33;;;4.30;;
286;SDS011;127;48.770;9.212;2024-03-22T14:19:18;11.27;;;5.07;;
286;SDS011;127;48.770;9.212;2024-03-22T14:21:44;10.47;;;4.90;;
286;SDS011;127;48.770;9.212;2024-03-22T14:24:13;16.13;;;6.10;;
286;SDS011;127;48.770;9.212;2024-03-22T14:26:40;11.83;;;4.70;;
286;SDS011;127;48.770;9.212;2024-03-22T14:29:07;10.43;;;5.40;;
286;SDS011;127;48.770;9.212;2024-03-22T14:31:34;10.83;;;5.57;;
286;SDS011;127;48.770;9.212;2024-03-22T14:34:00;8.00;;;4.60;;
286;SDS011;127;48.770;9.212;2024-03-22T14:36:27;9.80;;;4.40;;
286;SDS011;127;48.770;9.212;2024-03-22T14:38:53;8.30;;;4.07;;
286;SDS011;127;48.770;9.212;2024-03-22T14:41:22;9.50;;;4.13;;
286;SDS011;127;48.770;9.212;2024-03-22T14:43:48;10.57;;;3.87;;
286;SDS011;127;48.770;9.212;2024-03-22T14:46:15;6.37;;;3.97;;
286;SDS011;127;48.770;9.212;2024-03-22T14:48:41;5.50;;;3.70;;
286;SDS011;127;48.770;9.212;2024-03-22T14:51:07;5.43;;;3.30;;
286;SDS011;127;48.770;9.212;2024-03-22T14:53:34;6.43;;;3.00;;
286;SDS011;127;48.770;9.212;2024-03-22T14:56:01;11.97;;;3.37;;
286;SDS011;127;48.770;9.212;2024-03-22T14:58:31;4.33;;;2.70;;
286;SDS011;127;48.770;9.212;2024-03-22T15:00:58;6.20;;;2.67;;
286;SDS011;127;48.770;9.212;2024-03-22T15:03:25;16.93;;;3.10;;
286;SDS011;127;48.770;9.212;2024-03-22T15:05:52;5.00;;;2.73;;
286;SDS011;127;48.770;9.212;2024-03-22T15:08:19;8.33;;;2.80;;
286;SDS011;127;48.770;9.212;2024-03-22T15:10:46;5.23;;;2.23;;
286;SDS011;127;48.770;9.212;2024-03-22T15:13:12;5.07;;;2.97;;
286;SDS011;127;48.770;9.212;2024-03-22T15:15:41;5.30;;;2.40;;
286;SDS011;127;48.770;9.212;2024-03-22T15:18:08;5.10;;;2.77;;
286;SDS011;127;48.770;9.212;2024-03-22T15:20:34;8.73;;;4.43;;
286;SDS011;127;48.770;9.212;2024-03-22T15:23:01;5.53;;;3.33;;
286;SDS011;127;48.770;9.212;2024-03-22T15:25:27;5.73;;;2.87;;